sensor_id;sensor_type;location;lat;lon;timestamp;temperature;humidity
5276;DHT22;2661;50.786;12.728;2023-03-01T00:01:28;-3.20;62.70
5276;DHT22;2661;50.786;12.728;2023-03-01T00:03:55;-3.20;60.70
5276;DHT22;2661;50.786;12.728;2023-03-01T00:06:22;-3.30;31.40
5276;DHT22;2661;50.786;12.728;2023-03-01T00:08:49;-3.30;47.10
5276;DHT22;2661;50.786;12.728;2023-03-01T00:11:17;-3.30;53.00
5276;DHT22;2661;50.786;12.728;2023-03-01T00:13:44;-3.30;52.00
5276;DHT22;2661;50.786;12.728;2023-03-01T00:16:18;-3.20;49.30
5276;DHT22;2661;50.786;12.728;2023-03-01T00:18:45;-3.30;54.00
5276;DHT22;2661;50.786;12.728;2023-03-01T00:21:12;-3.20;48.20
5276;DHT22;2661;50.786;12.728;2023-03-01T00:23:38;-3.30;52.30
5276;DHT22;2661;50.786;12.728;2023-03-01T00:26:06;-3.40;54.80
5276;DHT22;2661;50.786;12.728;2023-03-01T00:28:32;-3.50;12.40
5276;DHT22;2661;50.786;12.728;2023-03-01T00:31:06;-3.60;91.10
5276;DHT22;2661;50.786;12.728;2023-03-01T00:33:33;-3.60;39.00
5276;DHT22;2661;50.786;12.728;2023-03-01T00:36:00;-3.70;13.80
5276;DHT22;2661;50.786;12.728;2023-03-01T00:38:27;-3.70;23.40
5276;DHT22;2661;50.786;12.728;2023-03-01T00:40:53;-3.80;51.30
5276;DHT22;2661;50.786;12.728;2023-03-01T00:43:20;-3.70;48.50
5276;DHT22;2661;50.786;12.728;2023-03-01T00:45:46;-3.80;44.20
5276;DHT22;2661;50.786;12.728;2023-03-01T00:48:13;-3.70;61.70
5276;DHT22;2661;50.786;12.728;2023-03-01T00:50:40;-3.60;46.70
5276;DHT22;2661;50.786;12.728;2023-03-01T00:53:06;-3.60;51.80
5276;DHT22;2661;50.786;12.728;2023-03-01T00:55:33;-3.60;45.00
5276;DHT22;2661;50.786;12.728;2023-03-01T00:57:59;-3.60;71.10
5276;DHT22;2661;50.786;12.728;2023-03-01T01:00:26;-3.70;46.60
5276;DHT22;2661;50.786;12.728;2023-03-01T01:02:53;-3.80;47.90
5276;DHT22;2661;50.786;12.728;2023-03-01T01:05:20;-3.80;37.40
5276;DHT22;2661;50.786;12.728;2023-03-01T01:07:47;-3.80;33.80
5276;DHT22;2661;50.786;12.728;2023-03-01T01:10:14;-3.80;40.20
5276;DHT22;2661;50.786;12.728;2023-03-01T01:12:46;-3.90;40.50
5276;DHT22;2661;50.786;12.728;2023-03-01T01:15:13;-3.90;52.00
5276;DHT22;2661;50.786;12.728;2023-03-01T01:17:40;-3.90;42.80
5276;DHT22;2661;50.786;12.728;2023-03-01T01:20:07;-4.00;41.10
5276;DHT22;2661;50.786;12.728;2023-03-01T01:22:35;-4.10;50.60
5276;DHT22;2661;50.786;12.728;2023-03-01T01:25:01;-4.20;60.70
5276;DHT22;2661;50.786;12.728;2023-03-01T01:27:29;-4.20;54.00
5276;DHT22;2661;50.786;12.728;2023-03-01T01:29:55;-4.30;57.90
5276;DHT22;2661;50.786;12.728;2023-03-01T01:32:22;-4.20;41.70
5276;DHT22;2661;50.786;12.728;2023-03-01T01:34:51;-4.30;43.20
5276;DHT22;2661;50.786;12.728;2023-03-01T01:37:17;-4.20;34.80
5276;DHT22;2661;50.786;12.728;2023-03-01T01:39:44;-4.20;41.20
5276;DHT22;2661;50.786;12.728;2023-03-01T01:42:13;-4.20;49.20
5276;DHT22;2661;50.786;12.728;2023-03-01T01:44:42;-4.10;42.20
5276;DHT22;2661;50.786;12.728;2023-03-01T01:47:12;-4.10;45.60
5276;DHT22;2661;50.786;12.728;2023-03-01T01:49:42;-4.10;41.90
5276;DHT22;2661;50.786;12.728;2023-03-01T01:52:19;-4.10;47.10
5276;DHT22;2661;50.786;12.728;2023-03-01T01:54:51;-4.20;40.10
5276;DHT22;2661;50.786;12.728;2023-03-01T01:57:22;-4.20;37.60
5276;DHT22;2661;50.786;12.728;2023-03-01T01:59:50;-4.40;41.60
5276;DHT22;2661;50.786;12.728;2023-03-01T02:02:18;-4.40;40.50
5276;DHT22;2661;50.786;12.728;2023-03-01T02:04:45;-4.30;34.10
5276;DHT22;2661;50.786;12.728;2023-03-01T02:07:17;-4.30;48.30
5276;DHT22;2661;50.786;12.728;2023-03-01T02:09:45;-4.20;41.50
5276;DHT22;2661;50.786;12.728;2023-03-01T02:12:13;-4.10;39.70
5276;DHT22;2661;50.786;12.728;2023-03-01T02:14:40;-4.10;43.00
5276;DHT22;2661;50.786;12.728;2023-03-01T02:17:07;-4.10;43.00
5276;DHT22;2661;50.786;12.728;2023-03-01T02:19:40;-4.10;49.20
5276;DHT22;2661;50.786;12.728;2023-03-01T02:22:15;-4.20;47.10
5276;DHT22;2661;50.786;12.728;2023-03-01T02:27:15;-4.30;44.80
5276;DHT22;2661;50.786;12.728;2023-03-01T02:29:42;-4.30;46.70
5276;DHT22;2661;50.786;12.728;2023-03-01T02:32:10;-4.30;55.20
5276;DHT22;2661;50.786;12.728;2023-03-01T02:34:37;-4.30;6.60
5276;DHT22;2661;50.786;12.728;2023-03-01T02:37:07;-4.30;43.20
5276;DHT22;2661;50.786;12.728;2023-03-01T02:39:42;-4.30;40.60
5276;DHT22;2661;50.786;12.728;2023-03-01T02:42:11;-4.30;46.20
5276;DHT22;2661;50.786;12.728;2023-03-01T02:44:39;-4.40;43.80
5276;DHT22;2661;50.786;12.728;2023-03-01T02:47:05;-4.40;45.50
5276;DHT22;2661;50.786;12.728;2023-03-01T02:49:33;-4.40;55.30
5276;DHT22;2661;50.786;12.728;2023-03-01T02:57:09;-4.70;90.20
5276;DHT22;2661;50.786;12.728;2023-03-01T02:59:36;-4.70;44.90
5276;DHT22;2661;50.786;12.728;2023-03-01T03:02:06;-4.70;54.00
5276;DHT22;2661;50.786;12.728;2023-03-01T03:04:33;-4.70;46.70
5276;DHT22;2661;50.786;12.728;2023-03-01T03:07:00;-4.80;49.50
5276;DHT22;2661;50.786;12.728;2023-03-01T03:09:28;-4.80;36.40
5276;DHT22;2661;50.786;12.728;2023-03-01T03:11:54;-4.70;47.10
5276;DHT22;2661;50.786;12.728;2023-03-01T03:14:21;-4.70;44.20
5276;DHT22;2661;50.786;12.728;2023-03-01T03:16:49;-4.70;46.60
5276;DHT22;2661;50.786;12.728;2023-03-01T03:19:17;-4.70;33.20
5276;DHT22;2661;50.786;12.728;2023-03-01T03:21:43;-4.70;46.70
5276;DHT22;2661;50.786;12.728;2023-03-01T03:24:10;-4.60;28.90
5276;DHT22;2661;50.786;12.728;2023-03-01T03:26:37;-4.60;39.70
5276;DHT22;2661;50.786;12.728;2023-03-01T03:29:03;-4.60;33.80
5276;DHT22;2661;50.786;12.728;2023-03-01T03:31:30;-4.70;35.60
5276;DHT22;2661;50.786;12.728;2023-03-01T03:33:56;-4.70;29.50
5276;DHT22;2661;50.786;12.728;2023-03-01T03:36:25;-4.70;29.70
5276;DHT22;2661;50.786;12.728;2023-03-01T03:38:51;-4.70;31.30
5276;DHT22;2661;50.786;12.728;2023-03-01T03:41:18;-4.70;43.40
5276;DHT22;2661;50.786;12.728;2023-03-01T03:43:45;-4.70;42.30
5276;DHT22;2661;50.786;12.728;2023-03-01T03:46:11;-4.70;38.00
5276;DHT22;2661;50.786;12.728;2023-03-01T03:48:39;-4.70;41.50
5276;DHT22;2661;50.786;12.728;2023-03-01T03:51:06;-4.60;44.70
5276;DHT22;2661;50.786;12.728;2023-03-01T03:53:34;-4.60;43.80
5276;DHT22;2661;50.786;12.728;2023-03-01T03:56:00;-4.50;44.00
5276;DHT22;2661;50.786;12.728;2023-03-01T03:58:27;-4.50;42.80
5276;DHT22;2661;50.786;12.728;2023-03-01T04:00:55;-4.50;4.10
5276;DHT22;2661;50.786;12.728;2023-03-01T04:03:23;-4.60;51.70
5276;DHT22;2661;50.786;12.728;2023-03-01T04:05:50;-4.60;2.60
5276;DHT22;2661;50.786;12.728;2023-03-01T04:08:17;-4.50;5.70
5276;DHT22;2661;50.786;12.728;2023-03-01T04:10:47;-4.60;3.00
5276;DHT22;2661;50.786;12.728;2023-03-01T04:13:17;-4.50;4.50
5276;DHT22;2661;50.786;12.728;2023-03-01T04:15:46;-4.50;23.00
5276;DHT22;2661;50.786;12.728;2023-03-01T04:18:15;-4.50;20.70
5276;DHT22;2661;50.786;12.728;2023-03-01T04:20:42;-4.50;11.50
5276;DHT22;2661;50.786;12.728;2023-03-01T04:23:11;-4.40;13.90
5276;DHT22;2661;50.786;12.728;2023-03-01T04:25:40;-4.40;18.00
5276;DHT22;2661;50.786;12.728;2023-03-01T04:28:08;-4.40;14.50
5276;DHT22;2661;50.786;12.728;2023-03-01T04:30:35;-4.40;17.00
5276;DHT22;2661;50.786;12.728;2023-03-01T04:33:03;-4.30;16.20
5276;DHT22;2661;50.786;12.728;2023-03-01T04:35:30;-4.20;13.80
5276;DHT22;2661;50.786;12.728;2023-03-01T04:37:57;-4.30;23.00
5276;DHT22;2661;50.786;12.728;2023-03-01T04:40:24;-4.30;45.80
5276;DHT22;2661;50.786;12.728;2023-03-01T04:42:50;-4.40;48.00
5276;DHT22;2661;50.786;12.728;2023-03-01T04:45:17;-4.40;48.80
5276;DHT22;2661;50.786;12.728;2023-03-01T04:47:44;-4.60;49.10
5276;DHT22;2661;50.786;12.728;2023-03-01T04:50:13;-4.70;49.50
5276;DHT22;2661;50.786;12.728;2023-03-01T04:52:39;-4.80;38.50
5276;DHT22;2661;50.786;12.728;2023-03-01T04:55:06;-4.80;69.20
5276;DHT22;2661;50.786;12.728;2023-03-01T04:57:33;-4.80;59.70
5276;DHT22;2661;50.786;12.728;2023-03-01T05:00:00;-4.90;61.90
5276;DHT22;2661;50.786;12.728;2023-03-01T05:02:27;-4.90;67.70
5276;DHT22;2661;50.786;12.728;2023-03-01T05:04:53;-4.90;54.20
5276;DHT22;2661;50.786;12.728;2023-03-01T05:07:23;-4.60;62.70
5276;DHT22;2661;50.786;12.728;2023-03-01T05:09:51;-4.70;48.50
5276;DHT22;2661;50.786;12.728;2023-03-01T05:12:33;-4.70;46.30
5276;DHT22;2661;50.786;12.728;2023-03-01T05:15:00;-4.70;54.50
5276;DHT22;2661;50.786;12.728;2023-03-01T05:17:26;-4.80;14.90
5276;DHT22;2661;50.786;12.728;2023-03-01T05:19:53;-4.90;16.90
5276;DHT22;2661;50.786;12.728;2023-03-01T05:22:28;-5.00;19.70
5276;DHT22;2661;50.786;12.728;2023-03-01T05:24:55;-5.00;20.40
5276;DHT22;2661;50.786;12.728;2023-03-01T05:27:22;-5.00;11.00
5276;DHT22;2661;50.786;12.728;2023-03-01T05:29:48;-5.00;44.20
5276;DHT22;2661;50.786;12.728;2023-03-01T05:32:15;-5.00;39.00
5276;DHT22;2661;50.786;12.728;2023-03-01T05:34:42;-5.00;40.00
5276;DHT22;2661;50.786;12.728;2023-03-01T05:37:08;-5.00;53.90
5276;DHT22;2661;50.786;12.728;2023-03-01T05:39:35;-5.00;40.50
5276;DHT22;2661;50.786;12.728;2023-03-01T05:42:02;-5.10;43.60
5276;DHT22;2661;50.786;12.728;2023-03-01T05:44:29;-5.10;43.30
5276;DHT22;2661;50.786;12.728;2023-03-01T05:46:55;-5.10;42.40
5276;DHT22;2661;50.786;12.728;2023-03-01T05:49:22;-4.90;49.30
5276;DHT22;2661;50.786;12.728;2023-03-01T05:51:52;-4.90;44.50
5276;DHT22;2661;50.786;12.728;2023-03-01T05:54:20;-4.90;43.60
5276;DHT22;2661;50.786;12.728;2023-03-01T05:56:46;-4.90;36.70
5276;DHT22;2661;50.786;12.728;2023-03-01T05:59:13;-4.90;52.20
5276;DHT22;2661;50.786;12.728;2023-03-01T06:01:41;-4.90;54.00
5276;DHT22;2661;50.786;12.728;2023-03-01T06:04:08;-4.90;49.60
5276;DHT22;2661;50.786;12.728;2023-03-01T06:06:35;-4.90;54.00
5276;DHT22;2661;50.786;12.728;2023-03-01T06:09:04;-4.80;70.50
5276;DHT22;2661;50.786;12.728;2023-03-01T06:11:30;-4.80;51.30
5276;DHT22;2661;50.786;12.728;2023-03-01T06:13:57;-4.70;60.50
5276;DHT22;2661;50.786;12.728;2023-03-01T06:16:24;-4.70;67.90
5276;DHT22;2661;50.786;12.728;2023-03-01T06:18:50;-4.70;79.00
5276;DHT22;2661;50.786;12.728;2023-03-01T06:21:17;-4.70;63.60
5276;DHT22;2661;50.786;12.728;2023-03-01T06:23:44;-4.60;56.50
5276;DHT22;2661;50.786;12.728;2023-03-01T06:26:10;-4.60;43.50
5276;DHT22;2661;50.786;12.728;2023-03-01T06:28:37;-4.60;37.80
5276;DHT22;2661;50.786;12.728;2023-03-01T06:31:03;-4.60;19.20
5276;DHT22;2661;50.786;12.728;2023-03-01T06:33:30;-4.50;19.00
5276;DHT22;2661;50.786;12.728;2023-03-01T06:35:57;-4.50;24.30
5276;DHT22;2661;50.786;12.728;2023-03-01T06:38:23;-4.50;26.30
5276;DHT22;2661;50.786;12.728;2023-03-01T06:40:54;-4.40;23.80
5276;DHT22;2661;50.786;12.728;2023-03-01T06:43:21;-4.30;29.10
5276;DHT22;2661;50.786;12.728;2023-03-01T06:45:47;-4.30;26.50
5276;DHT22;2661;50.786;12.728;2023-03-01T06:48:14;-4.30;49.40
5276;DHT22;2661;50.786;12.728;2023-03-01T06:50:41;-4.30;17.50
5276;DHT22;2661;50.786;12.728;2023-03-01T06:53:07;-4.10;23.10
5276;DHT22;2661;50.786;12.728;2023-03-01T06:55:34;-3.90;17.20
5276;DHT22;2661;50.786;12.728;2023-03-01T06:58:01;-3.90;18.20
5276;DHT22;2661;50.786;12.728;2023-03-01T07:00:28;-3.90;19.00
5276;DHT22;2661;50.786;12.728;2023-03-01T07:02:55;-3.80;16.20
5276;DHT22;2661;50.786;12.728;2023-03-01T07:05:24;-3.70;32.80
5276;DHT22;2661;50.786;12.728;2023-03-01T07:07:50;-3.50;23.80
5276;DHT22;2661;50.786;12.728;2023-03-01T07:10:17;-3.40;22.00
5276;DHT22;2661;50.786;12.728;2023-03-01T07:12:43;-3.40;53.40
5276;DHT22;2661;50.786;12.728;2023-03-01T07:15:10;-3.30;42.30
5276;DHT22;2661;50.786;12.728;2023-03-01T07:17:37;-3.30;88.70
5276;DHT22;2661;50.786;12.728;2023-03-01T07:20:03;-3.10;23.90
5276;DHT22;2661;50.786;12.728;2023-03-01T07:22:30;-3.10;27.80
5276;DHT22;2661;50.786;12.728;2023-03-01T07:24:57;-3.10;27.30
5276;DHT22;2661;50.786;12.728;2023-03-01T07:27:23;-3.00;42.40
5276;DHT22;2661;50.786;12.728;2023-03-01T07:29:50;-2.90;46.10
5276;DHT22;2661;50.786;12.728;2023-03-01T07:32:16;-2.90;25.80
5276;DHT22;2661;50.786;12.728;2023-03-01T07:34:43;-2.80;33.30
5276;DHT22;2661;50.786;12.728;2023-03-01T07:37:10;-2.60;25.80
5276;DHT22;2661;50.786;12.728;2023-03-01T07:39:36;-2.50;27.20
5276;DHT22;2661;50.786;12.728;2023-03-01T07:42:03;-2.40;65.30
5276;DHT22;2661;50.786;12.728;2023-03-01T07:44:29;-2.40;58.50
5276;DHT22;2661;50.786;12.728;2023-03-01T07:46:56;-2.40;47.70
5276;DHT22;2661;50.786;12.728;2023-03-01T07:49:24;-2.20;32.50
5276;DHT22;2661;50.786;12.728;2023-03-01T07:51:52;-2.20;28.70
5276;DHT22;2661;50.786;12.728;2023-03-01T07:54:19;-2.20;59.80
5276;DHT22;2661;50.786;12.728;2023-03-01T07:56:45;-2.20;27.50
5276;DHT22;2661;50.786;12.728;2023-03-01T07:59:12;-2.20;28.00
5276;DHT22;2661;50.786;12.728;2023-03-01T08:01:39;-2.20;25.10
5276;DHT22;2661;50.786;12.728;2023-03-01T08:04:06;-2.20;23.80
5276;DHT22;2661;50.786;12.728;2023-03-01T08:06:34;-2.00;23.60
5276;DHT22;2661;50.786;12.728;2023-03-01T08:09:01;-1.90;72.20
5276;DHT22;2661;50.786;12.728;2023-03-01T08:11:27;-1.90;27.00
5276;DHT22;2661;50.786;12.728;2023-03-01T08:13:55;-1.90;22.30
5276;DHT22;2661;50.786;12.728;2023-03-01T08:16:22;-1.90;27.80
5276;DHT22;2661;50.786;12.728;2023-03-01T08:18:49;-1.70;36.00
5276;DHT22;2661;50.786;12.728;2023-03-01T08:21:17;-1.60;27.20
5276;DHT22;2661;50.786;12.728;2023-03-01T08:23:44;-1.60;29.80
5276;DHT22;2661;50.786;12.728;2023-03-01T08:26:12;-1.60;89.00
5276;DHT22;2661;50.786;12.728;2023-03-01T08:28:40;-1.50;68.10
5276;DHT22;2661;50.786;12.728;2023-03-01T08:31:40;-1.40;73.90
5276;DHT22;2661;50.786;12.728;2023-03-01T08:34:03;-1.20;68.10
5276;DHT22;2661;50.786;12.728;2023-03-01T08:36:32;-1.20;74.30
5276;DHT22;2661;50.786;12.728;2023-03-01T08:38:59;-1.10;72.40
5276;DHT22;2661;50.786;12.728;2023-03-01T08:41:26;-1.10;72.50
5276;DHT22;2661;50.786;12.728;2023-03-01T08:43:53;-1.00;86.10
5276;DHT22;2661;50.786;12.728;2023-03-01T08:46:28;-0.90;77.20
5276;DHT22;2661;50.786;12.728;2023-03-01T08:48:55;-1.00;75.00
5276;DHT22;2661;50.786;12.728;2023-03-01T08:51:22;-1.00;58.50
5276;DHT22;2661;50.786;12.728;2023-03-01T08:53:49;-1.00;73.80
5276;DHT22;2661;50.786;12.728;2023-03-01T08:56:15;-0.90;71.20
5276;DHT22;2661;50.786;12.728;2023-03-01T08:58:46;-0.90;85.10
5276;DHT22;2661;50.786;12.728;2023-03-01T09:01:13;-0.70;80.30
5276;DHT22;2661;50.786;12.728;2023-03-01T09:03:41;-0.70;80.30
5276;DHT22;2661;50.786;12.728;2023-03-01T09:06:08;-0.70;92.60
5276;DHT22;2661;50.786;12.728;2023-03-01T09:08:35;-0.70;84.60
5276;DHT22;2661;50.786;12.728;2023-03-01T09:11:06;-0.60;88.10
5276;DHT22;2661;50.786;12.728;2023-03-01T09:13:33;-0.50;76.20
5276;DHT22;2661;50.786;12.728;2023-03-01T09:16:00;-0.50;87.10
5276;DHT22;2661;50.786;12.728;2023-03-01T09:18:27;-0.40;84.80
5276;DHT22;2661;50.786;12.728;2023-03-01T09:21:00;-0.40;75.90
5276;DHT22;2661;50.786;12.728;2023-03-01T09:23:27;-0.30;77.70
5276;DHT22;2661;50.786;12.728;2023-03-01T09:25:53;-0.30;91.30
5276;DHT22;2661;50.786;12.728;2023-03-01T09:28:20;-0.20;92.20
5276;DHT22;2661;50.786;12.728;2023-03-01T09:30:59;-0.10;84.30
5276;DHT22;2661;50.786;12.728;2023-03-01T09:33:27;0.00;99.90
5276;DHT22;2661;50.786;12.728;2023-03-01T09:35:57;0.10;92.80
5276;DHT22;2661;50.786;12.728;2023-03-01T09:38:24;0.10;83.70
5276;DHT22;2661;50.786;12.728;2023-03-01T09:40:52;0.30;83.00
5276;DHT22;2661;50.786;12.728;2023-03-01T09:46:05;0.30;93.90
5276;DHT22;2661;50.786;12.728;2023-03-01T09:48:39;0.30;88.50
5276;DHT22;2661;50.786;12.728;2023-03-01T09:51:09;0.40;91.10
5276;DHT22;2661;50.786;12.728;2023-03-01T09:53:39;0.50;90.40
5276;DHT22;2661;50.786;12.728;2023-03-01T09:58:58;0.50;89.90
5276;DHT22;2661;50.786;12.728;2023-03-01T10:01:29;0.60;99.90
5276;DHT22;2661;50.786;12.728;2023-03-01T10:06:25;0.80;93.20
5276;DHT22;2661;50.786;12.728;2023-03-01T10:09:02;0.80;99.90
5276;DHT22;2661;50.786;12.728;2023-03-01T10:11:32;0.80;99.90
5276;DHT22;2661;50.786;12.728;2023-03-01T10:14:03;0.80;99.90
5276;DHT22;2661;50.786;12.728;2023-03-01T10:16:48;0.90;91.00
5276;DHT22;2661;50.786;12.728;2023-03-01T10:19:23;0.90;92.00
5276;DHT22;2661;50.786;12.728;2023-03-01T10:21:51;0.90;99.90
5276;DHT22;2661;50.786;12.728;2023-03-01T10:24:18;0.90;96.90
5276;DHT22;2661;50.786;12.728;2023-03-01T10:26:48;1.00;50.20
5276;DHT22;2661;50.786;12.728;2023-03-01T10:29:17;1.00;91.80
5276;DHT22;2661;50.786;12.728;2023-03-01T10:31:48;1.10;93.70
5276;DHT22;2661;50.786;12.728;2023-03-01T10:34:20;1.10;99.90
5276;DHT22;2661;50.786;12.728;2023-03-01T10:36:48;1.10;99.90
5276;DHT22;2661;50.786;12.728;2023-03-01T10:41:51;1.10;99.90
5276;DHT22;2661;50.786;12.728;2023-03-01T10:47:04;1.20;96.40
5276;DHT22;2661;50.786;12.728;2023-03-01T10:49:31;1.30;99.90
5276;DHT22;2661;50.786;12.728;2023-03-01T10:51:57;1.30;94.50
5276;DHT22;2661;50.786;12.728;2023-03-01T10:54:37;1.30;99.90
5276;DHT22;2661;50.786;12.728;2023-03-01T10:57:04;1.40;99.90
5276;DHT22;2661;50.786;12.728;2023-03-01T10:59:32;1.50;99.90
5276;DHT22;2661;50.786;12.728;2023-03-01T11:04:57;1.60;99.90
5276;DHT22;2661;50.786;12.728;2023-03-01T11:07:24;1.70;99.90
5276;DHT22;2661;50.786;12.728;2023-03-01T11:09:51;1.70;99.90
5276;DHT22;2661;50.786;12.728;2023-03-01T11:12:18;1.70;99.90
5276;DHT22;2661;50.786;12.728;2023-03-01T11:14:48;1.70;99.90
5276;DHT22;2661;50.786;12.728;2023-03-01T11:17:23;1.70;99.90
5276;DHT22;2661;50.786;12.728;2023-03-01T11:20:00;1.70;99.90
5276;DHT22;2661;50.786;12.728;2023-03-01T11:22:28;1.80;99.90
5276;DHT22;2661;50.786;12.728;2023-03-01T11:24:55;1.80;99.90
5276;DHT22;2661;50.786;12.728;2023-03-01T11:27:36;1.80;99.90
5276;DHT22;2661;50.786;12.728;2023-03-01T11:32:46;1.90;99.90
5276;DHT22;2661;50.786;12.728;2023-03-01T11:35:17;2.00;99.90
5276;DHT22;2661;50.786;12.728;2023-03-01T11:37:55;2.00;99.90
5276;DHT22;2661;50.786;12.728;2023-03-01T11:40:24;2.00;99.90
5276;DHT22;2661;50.786;12.728;2023-03-01T11:45:22;2.10;99.90
5276;DHT22;2661;50.786;12.728;2023-03-01T11:48:01;2.10;99.90
5276;DHT22;2661;50.786;12.728;2023-03-01T11:50:38;2.10;99.90
5276;DHT22;2661;50.786;12.728;2023-03-01T11:53:18;2.10;99.90
5276;DHT22;2661;50.786;12.728;2023-03-01T11:58:57;2.20;99.90
5276;DHT22;2661;50.786;12.728;2023-03-01T12:01:30;2.30;99.90
5276;DHT22;2661;50.786;12.728;2023-03-01T12:11:36;2.40;99.90
5276;DHT22;2661;50.786;12.728;2023-03-01T12:20:17;2.40;99.90
5276;DHT22;2661;50.786;12.728;2023-03-01T12:34:56;2.40;99.90
5276;DHT22;2661;50.786;12.728;2023-03-01T12:40:48;2.50;99.90
5276;DHT22;2661;50.786;12.728;2023-03-01T12:43:27;2.50;99.90
5276;DHT22;2661;50.786;12.728;2023-03-01T12:46:04;2.60;99.90
5276;DHT22;2661;50.786;12.728;2023-03-01T12:48:40;2.60;99.90
5276;DHT22;2661;50.786;12.728;2023-03-01T12:51:08;2.60;99.90
5276;DHT22;2661;50.786;12.728;2023-03-01T12:53:41;2.60;99.90
5276;DHT22;2661;50.786;12.728;2023-03-01T12:56:10;2.70;99.90
5276;DHT22;2661;50.786;12.728;2023-03-01T12:58:45;2.70;99.90
5276;DHT22;2661;50.786;12.728;2023-03-01T13:03:58;2.80;99.90
5276;DHT22;2661;50.786;12.728;2023-03-01T13:06:34;2.80;99.40
5276;DHT22;2661;50.786;12.728;2023-03-01T13:09:19;2.80;97.70
5276;DHT22;2661;50.786;12.728;2023-03-01T13:11:49;2.90;99.90
5276;DHT22;2661;50.786;12.728;2023-03-01T13:16:52;2.80;99.90
5276;DHT22;2661;50.786;12.728;2023-03-01T13:19:20;2.80;99.90
5276;DHT22;2661;50.786;12.728;2023-03-01T13:21:47;2.80;99.90
5276;DHT22;2661;50.786;12.728;2023-03-01T13:24:25;2.90;99.90
5276;DHT22;2661;50.786;12.728;2023-03-01T13:29:45;2.90;99.90
5276;DHT22;2661;50.786;12.728;2023-03-01T13:32:29;2.90;97.50
5276;DHT22;2661;50.786;12.728;2023-03-01T13:37:41;3.00;95.10
5276;DHT22;2661;50.786;12.728;2023-03-01T13:42:54;3.00;99.90
5276;DHT22;2661;50.786;12.728;2023-03-01T13:45:38;3.00;99.90
5276;DHT22;2661;50.786;12.728;2023-03-01T13:48:11;3.00;99.90
5276;DHT22;2661;50.786;12.728;2023-03-01T13:50:48;3.00;99.90
5276;DHT22;2661;50.786;12.728;2023-03-01T13:53:17;3.00;99.90
5276;DHT22;2661;50.786;12.728;2023-03-01T13:55:48;3.00;99.90
5276;DHT22;2661;50.786;12.728;2023-03-01T13:58:31;2.90;93.60
5276;DHT22;2661;50.786;12.728;2023-03-01T14:00:59;3.00;99.80
5276;DHT22;2661;50.786;12.728;2023-03-01T14:03:26;3.00;91.20
5276;DHT22;2661;50.786;12.728;2023-03-01T14:05:58;3.10;80.00
5276;DHT22;2661;50.786;12.728;2023-03-01T14:08:38;3.00;89.20
5276;DHT22;2661;50.786;12.728;2023-03-01T14:11:19;3.00;86.40
5276;DHT22;2661;50.786;12.728;2023-03-01T14:16:35;3.00;84.90
5276;DHT22;2661;50.786;12.728;2023-03-01T14:21:33;3.00;94.20
5276;DHT22;2661;50.786;12.728;2023-03-01T14:23:59;2.90;91.80
5276;DHT22;2661;50.786;12.728;2023-03-01T14:26:26;2.90;91.80
5276;DHT22;2661;50.786;12.728;2023-03-01T14:28:53;2.90;94.50
5276;DHT22;2661;50.786;12.728;2023-03-01T14:31:31;3.00;81.80
5276;DHT22;2661;50.786;12.728;2023-03-01T14:34:18;3.00;91.70
5276;DHT22;2661;50.786;12.728;2023-03-01T14:36:45;3.00;91.70
5276;DHT22;2661;50.786;12.728;2023-03-01T14:39:24;3.00;90.20
5276;DHT22;2661;50.786;12.728;2023-03-01T14:41:52;3.00;90.00
5276;DHT22;2661;50.786;12.728;2023-03-01T14:44:22;3.00;89.80
5276;DHT22;2661;50.786;12.728;2023-03-01T14:46:54;2.90;92.60
5276;DHT22;2661;50.786;12.728;2023-03-01T14:49:22;2.90;85.30
5276;DHT22;2661;50.786;12.728;2023-03-01T14:51:52;2.90;80.70
5276;DHT22;2661;50.786;12.728;2023-03-01T14:57:05;3.00;89.80
5276;DHT22;2661;50.786;12.728;2023-03-01T14:59:33;3.00;86.20
5276;DHT22;2661;50.786;12.728;2023-03-01T15:02:00;2.90;92.50
5276;DHT22;2661;50.786;12.728;2023-03-01T15:04:27;2.90;88.50
5276;DHT22;2661;50.786;12.728;2023-03-01T15:06:54;2.90;89.40
5276;DHT22;2661;50.786;12.728;2023-03-01T15:09:22;2.90;98.20
5276;DHT22;2661;50.786;12.728;2023-03-01T15:11:49;2.90;87.70
5276;DHT22;2661;50.786;12.728;2023-03-01T15:14:25;2.90;98.10
5276;DHT22;2661;50.786;12.728;2023-03-01T15:16:52;2.90;99.90
5276;DHT22;2661;50.786;12.728;2023-03-01T15:19:18;2.80;93.80
5276;DHT22;2661;50.786;12.728;2023-03-01T15:21:46;2.80;95.70
5276;DHT22;2661;50.786;12.728;2023-03-01T15:24:20;2.90;99.90
5276;DHT22;2661;50.786;12.728;2023-03-01T15:26:52;2.80;96.00
5276;DHT22;2661;50.786;12.728;2023-03-01T15:29:22;2.90;92.30
5276;DHT22;2661;50.786;12.728;2023-03-01T15:31:54;2.90;96.80
5276;DHT22;2661;50.786;12.728;2023-03-01T15:34:25;2.90;99.90
5276;DHT22;2661;50.786;12.728;2023-03-01T15:36:53;2.90;88.60
5276;DHT22;2661;50.786;12.728;2023-03-01T15:39:25;2.80;96.80
5276;DHT22;2661;50.786;12.728;2023-03-01T15:41:53;2.80;99.90
5276;DHT22;2661;50.786;12.728;2023-03-01T15:46:55;2.80;99.90
5276;DHT22;2661;50.786;12.728;2023-03-01T15:49:41;2.80;99.90
5276;DHT22;2661;50.786;12.728;2023-03-01T15:52:24;2.80;99.90
5276;DHT22;2661;50.786;12.728;2023-03-01T15:55:01;2.80;99.90
5276;DHT22;2661;50.786;12.728;2023-03-01T15:57:35;2.70;95.40
5276;DHT22;2661;50.786;12.728;2023-03-01T16:03:30;2.70;95.40
5276;DHT22;2661;50.786;12.728;2023-03-01T16:05:56;2.60;99.40
5276;DHT22;2661;50.786;12.728;2023-03-01T16:08:23;2.70;99.90
5276;DHT22;2661;50.786;12.728;2023-03-01T16:10:50;2.70;92.60
5276;DHT22;2661;50.786;12.728;2023-03-01T16:13:17;2.60;99.90
5276;DHT22;2661;50.786;12.728;2023-03-01T16:15:44;2.60;95.60
5276;DHT22;2661;50.786;12.728;2023-03-01T16:18:11;2.50;82.70
5276;DHT22;2661;50.786;12.728;2023-03-01T16:20:38;2.50;82.40
5276;DHT22;2661;50.786;12.728;2023-03-01T16:23:06;2.50;81.10
5276;DHT22;2661;50.786;12.728;2023-03-01T16:25:36;2.40;97.70
5276;DHT22;2661;50.786;12.728;2023-03-01T16:28:02;2.30;99.90
5276;DHT22;2661;50.786;12.728;2023-03-01T16:30:35;2.30;74.10
5276;DHT22;2661;50.786;12.728;2023-03-01T16:33:03;2.20;85.80
5276;DHT22;2661;50.786;12.728;2023-03-01T16:35:50;2.20;90.80
5276;DHT22;2661;50.786;12.728;2023-03-01T16:38:17;2.10;99.90
5276;DHT22;2661;50.786;12.728;2023-03-01T16:40:46;2.10;82.40
5276;DHT22;2661;50.786;12.728;2023-03-01T16:43:13;2.10;79.20
5276;DHT22;2661;50.786;12.728;2023-03-01T16:45:40;2.00;95.40
5276;DHT22;2661;50.786;12.728;2023-03-01T16:48:11;2.00;92.30
5276;DHT22;2661;50.786;12.728;2023-03-01T16:50:37;1.90;78.70
5276;DHT22;2661;50.786;12.728;2023-03-01T16:53:04;1.90;95.20
5276;DHT22;2661;50.786;12.728;2023-03-01T16:55:31;1.80;79.60
5276;DHT22;2661;50.786;12.728;2023-03-01T16:57:58;1.70;75.90
5276;DHT22;2661;50.786;12.728;2023-03-01T17:00:24;1.60;95.30
5276;DHT22;2661;50.786;12.728;2023-03-01T17:02:51;1.60;88.30
5276;DHT22;2661;50.786;12.728;2023-03-01T17:05:19;1.50;93.70
5276;DHT22;2661;50.786;12.728;2023-03-01T17:07:47;1.50;92.20
5276;DHT22;2661;50.786;12.728;2023-03-01T17:10:14;1.50;96.30
5276;DHT22;2661;50.786;12.728;2023-03-01T17:12:40;1.50;91.40
5276;DHT22;2661;50.786;12.728;2023-03-01T17:15:07;1.50;90.30
5276;DHT22;2661;50.786;12.728;2023-03-01T17:17:33;1.60;96.00
5276;DHT22;2661;50.786;12.728;2023-03-01T17:20:01;1.50;99.90
5276;DHT22;2661;50.786;12.728;2023-03-01T17:22:30;1.40;84.50
5276;DHT22;2661;50.786;12.728;2023-03-01T17:24:56;1.20;92.50
5276;DHT22;2661;50.786;12.728;2023-03-01T17:27:23;1.10;91.50
5276;DHT22;2661;50.786;12.728;2023-03-01T17:29:50;1.00;71.80
5276;DHT22;2661;50.786;12.728;2023-03-01T17:32:17;0.80;67.50